sensor_id;sensor_type;location;lat;lon;timestamp;P1;durP1;ratioP1;P2;durP2;ratioP2
29712;SDS011;16623;53.632;10.016;2023-03-23T00:02:19;18.52;;;8.07;;
29712;SDS011;16623;53.632;10.016;2023-03-23T00:04:54;11.23;;;7.20;;
29712;SDS011;16623;53.632;10.016;2023-03-23T00:07:20;11.32;;;8.88;;
29712;SDS011;16623;53.632;10.016;2023-03-23T00:09:53;15.98;;;8.10;;
29712;SDS011;16623;53.632;10.016;2023-03-23T00:12:22;18.55;;;7.97;;
29712;SDS011;16623;53.632;10.016;2023-03-23T00:15:02;15.40;;;8.13;;
29712;SDS011;16623;53.632;10.016;2023-03-23T00:17:31;14.85;;;7.90;;
29712;SDS011;16623;53.632;10.016;2023-03-23T00:19:59;15.02;;;9.63;;
29712;SDS011;16623;53.632;10.016;2023-03-23T00:22:29;14.75;;;9.18;;
29712;SDS011;16623;53.632;10.016;2023-03-23T00:24:55;15.45;;;10.63;;
29712;SDS011;16623;53.632;10.016;2023-03-23T00:27:22;19.15;;;9.95;;
29712;SDS011;16623;53.632;10.016;2023-03-23T00:29:48;18.95;;;10.52;;
29712;SDS011;16623;53.632;10.016;2023-03-23T00:32:17;20.33;;;10.05;;
29712;SDS011;16623;53.632;10.016;2023-03-23T00:34:46;15.80;;;10.77;;
29712;SDS011;16623;53.632;10.016;2023-03-23T00:37:13;17.83;;;10.60;;
29712;SDS011;16623;53.632;10.016;2023-03-23T00:39:41;16.95;;;12.57;;
29712;SDS011;16623;53.632;10.016;2023-03-23T00:42:10;18.30;;;11.93;;
29712;SDS011;16623;53.632;10.016;2023-03-23T00:44:37;18.95;;;13.05;;
29712;SDS011;16623;53.632;10.016;2023-03-23T00:47:02;19.20;;;12.93;;
29712;SDS011;16623;53.632;10.016;2023-03-23T00:49:28;20.13;;;13.25;;
29712;SDS011;16623;53.632;10.016;2023-03-23T00:51:57;17.95;;;12.13;;
29712;SDS011;16623;53.632;10.016;2023-03-23T00:54:23;20.65;;;13.25;;
29712;SDS011;16623;53.632;10.016;2023-03-23T00:56:50;19.98;;;13.82;;
29712;SDS011;16623;53.632;10.016;2023-03-23T00:59:16;19.10;;;13.13;;
29712;SDS011;16623;53.632;10.016;2023-03-23T01:01:42;17.27;;;13.23;;
29712;SDS011;16623;53.632;10.016;2023-03-23T01:04:08;18.52;;;13.27;;
29712;SDS011;16623;53.632;10.016;2023-03-23T01:06:37;15.95;;;12.43;;
29712;SDS011;16623;53.632;10.016;2023-03-23T01:09:08;16.80;;;12.32;;
29712;SDS011;16623;53.632;10.016;2023-03-23T01:11:35;19.13;;;12.85;;
29712;SDS011;16623;53.632;10.016;2023-03-23T01:14:02;16.65;;;13.55;;
29712;SDS011;16623;53.632;10.016;2023-03-23T01:16:29;17.00;;;11.68;;
29712;SDS011;16623;53.632;10.016;2023-03-23T01:18:54;14.85;;;11.55;;
29712;SDS011;16623;53.632;10.016;2023-03-23T01:21:21;16.27;;;10.70;;
29712;SDS011;16623;53.632;10.016;2023-03-23T01:23:47;17.30;;;11.18;;
29712;SDS011;16623;53.632;10.016;2023-03-23T01:26:14;13.98;;;10.70;;
29712;SDS011;16623;53.632;10.016;2023-03-23T01:28:41;21.30;;;12.45;;
29712;SDS011;16623;53.632;10.016;2023-03-23T01:31:08;14.02;;;11.05;;
29712;SDS011;16623;53.632;10.016;2023-03-23T01:33:40;14.80;;;12.02;;
29712;SDS011;16623;53.632;10.016;2023-03-23T01:36:10;18.90;;;12.68;;
29712;SDS011;16623;53.632;10.016;2023-03-23T01:38:41;18.98;;;12.02;;
29712;SDS011;16623;53.632;10.016;2023-03-23T01:41:09;16.00;;;12.60;;
29712;SDS011;16623;53.632;10.016;2023-03-23T01:43:35;18.25;;;11.50;;
29712;SDS011;16623;53.632;10.016;2023-03-23T01:46:18;15.60;;;10.40;;
29712;SDS011;16623;53.632;10.016;2023-03-23T01:48:43;13.98;;;10.77;;
29712;SDS011;16623;53.632;10.016;2023-03-23T01:51:12;17.38;;;11.52;;
29712;SDS011;16623;53.632;10.016;2023-03-23T01:53:42;16.25;;;12.80;;
29712;SDS011;16623;53.632;10.016;2023-03-23T01:56:11;20.13;;;13.68;;
29712;SDS011;16623;53.632;10.016;2023-03-23T01:58:39;17.73;;;13.60;;
29712;SDS011;16623;53.632;10.016;2023-03-23T02:01:07;18.05;;;13.23;;
29712;SDS011;16623;53.632;10.016;2023-03-23T02:03:37;17.23;;;14.07;;
29712;SDS011;16623;53.632;10.016;2023-03-23T02:06:07;21.10;;;14.50;;
29712;SDS011;16623;53.632;10.016;2023-03-23T02:08:32;17.92;;;13.65;;
29712;SDS011;16623;53.632;10.016;2023-03-23T02:11:00;20.67;;;14.63;;
29712;SDS011;16623;53.632;10.016;2023-03-23T02:13:26;19.10;;;13.40;;
29712;SDS011;16623;53.632;10.016;2023-03-23T02:15:54;23.13;;;14.48;;
29712;SDS011;16623;53.632;10.016;2023-03-23T02:18:37;18.02;;;13.15;;
29712;SDS011;16623;53.632;10.016;2023-03-23T02:21:13;22.48;;;14.27;;
29712;SDS011;16623;53.632;10.016;2023-03-23T02:24:10;19.88;;;11.27;;
29712;SDS011;16623;53.632;10.016;2023-03-23T02:32:10;21.20;;;13.63;;
29712;SDS011;16623;53.632;10.016;2023-03-23T02:34:50;18.85;;;13.15;;
29712;SDS011;16623;53.632;10.016;2023-03-23T02:39:59;15.07;;;12.48;;
29712;SDS011;16623;53.632;10.016;2023-03-23T02:42:50;18.77;;;11.80;;
29712;SDS011;16623;53.632;10.016;2023-03-23T02:45:19;16.67;;;12.18;;
29712;SDS011;16623;53.632;10.016;2023-03-23T02:47:48;18.83;;;12.90;;
29712;SDS011;16623;53.632;10.016;2023-03-23T02:50:16;20.88;;;12.00;;
29712;SDS011;16623;53.632;10.016;2023-03-23T02:52:44;18.05;;;12.60;;
29712;SDS011;16623;53.632;10.016;2023-03-23T02:55:14;18.02;;;10.88;;
29712;SDS011;16623;53.632;10.016;2023-03-23T02:57:40;15.93;;;12.63;;
29712;SDS011;16623;53.632;10.016;2023-03-23T03:00:10;14.25;;;11.15;;
29712;SDS011;16623;53.632;10.016;2023-03-23T03:02:40;18.20;;;12.70;;
29712;SDS011;16623;53.632;10.016;2023-03-23T03:05:22;14.68;;;10.98;;
29712;SDS011;16623;53.632;10.016;2023-03-23T03:08:10;18.25;;;12.15;;
29712;SDS011;16623;53.632;10.016;2023-03-23T03:10:58;17.85;;;11.45;;
29712;SDS011;16623;53.632;10.016;2023-03-23T03:13:32;16.65;;;12.55;;
29712;SDS011;16623;53.632;10.016;2023-03-23T03:16:14;14.68;;;11.70;;
29712;SDS011;16623;53.632;10.016;2023-03-23T03:21:33;14.98;;;11.70;;
29712;SDS011;16623;53.632;10.016;2023-03-23T03:24:02;17.98;;;11.60;;
29712;SDS011;16623;53.632;10.016;2023-03-23T03:26:32;18.77;;;11.48;;
29712;SDS011;16623;53.632;10.016;2023-03-23T03:29:01;15.35;;;11.38;;
29712;SDS011;16623;53.632;10.016;2023-03-23T03:31:32;13.95;;;11.85;;
29712;SDS011;16623;53.632;10.016;2023-03-23T03:34:02;17.33;;;12.45;;
29712;SDS011;16623;53.632;10.016;2023-03-23T03:36:28;17.85;;;12.00;;
29712;SDS011;16623;53.632;10.016;2023-03-23T03:39:00;16.05;;;12.25;;
29712;SDS011;16623;53.632;10.016;2023-03-23T03:41:32;16.50;;;11.32;;
29712;SDS011;16623;53.632;10.016;2023-03-23T03:43:58;15.05;;;11.20;;
29712;SDS011;16623;53.632;10.016;2023-03-23T03:46:24;16.10;;;11.38;;
29712;SDS011;16623;53.632;10.016;2023-03-23T03:48:52;16.80;;;12.27;;
29712;SDS011;16623;53.632;10.016;2023-03-23T03:51:18;16.55;;;12.20;;
29712;SDS011;16623;53.632;10.016;2023-03-23T03:53:43;14.48;;;12.40;;
29712;SDS011;16623;53.632;10.016;2023-03-23T03:56:09;15.82;;;12.63;;
29712;SDS011;16623;53.632;10.016;2023-03-23T03:58:35;15.35;;;11.20;;
29712;SDS011;16623;53.632;10.016;2023-03-23T04:01:01;20.10;;;12.60;;
29712;SDS011;16623;53.632;10.016;2023-03-23T04:03:27;15.07;;;11.55;;
29712;SDS011;16623;53.632;10.016;2023-03-23T04:05:56;17.45;;;12.15;;
29712;SDS011;16623;53.632;10.016;2023-03-23T04:08:22;19.17;;;12.30;;
29712;SDS011;16623;53.632;10.016;2023-03-23T04:10:47;14.68;;;12.30;;
29712;SDS011;16623;53.632;10.016;2023-03-23T04:13:13;16.30;;;11.52;;
29712;SDS011;16623;53.632;10.016;2023-03-23T04:15:39;17.13;;;12.43;;
29712;SDS011;16623;53.632;10.016;2023-03-23T04:18:05;18.88;;;12.38;;
29712;SDS011;16623;53.632;10.016;2023-03-23T04:20:31;15.43;;;11.27;;
29712;SDS011;16623;53.632;10.016;2023-03-23T04:22:57;16.67;;;10.40;;
29712;SDS011;16623;53.632;10.016;2023-03-23T04:25:22;12.85;;;9.57;;
29712;SDS011;16623;53.632;10.016;2023-03-23T04:27:49;17.08;;;11.05;;
29712;SDS011;16623;53.632;10.016;2023-03-23T04:30:22;14.07;;;10.27;;
29712;SDS011;16623;53.632;10.016;2023-03-23T04:32:51;15.77;;;11.18;;
29712;SDS011;16623;53.632;10.016;2023-03-23T04:35:20;16.35;;;10.88;;
29712;SDS011;16623;53.632;10.016;2023-03-23T04:37:46;16.27;;;11.02;;
29712;SDS011;16623;53.632;10.016;2023-03-23T04:40:12;12.95;;;11.32;;
29712;SDS011;16623;53.632;10.016;2023-03-23T04:42:40;18.70;;;12.10;;
29712;SDS011;16623;53.632;10.016;2023-03-23T04:45:13;18.70;;;12.57;;
29712;SDS011;16623;53.632;10.016;2023-03-23T04:47:46;14.40;;;10.73;;
29712;SDS011;16623;53.632;10.016;2023-03-23T04:50:18;14.23;;;10.45;;
29712;SDS011;16623;53.632;10.016;2023-03-23T04:52:44;15.88;;;11.15;;
29712;SDS011;16623;53.632;10.016;2023-03-23T04:55:11;15.57;;;10.68;;
29712;SDS011;16623;53.632;10.016;2023-03-23T04:57:37;16.65;;;11.30;;
29712;SDS011;16623;53.632;10.016;2023-03-23T05:00:04;15.60;;;10.82;;
29712;SDS011;16623;53.632;10.016;2023-03-23T05:02:34;15.57;;;11.25;;
29712;SDS011;16623;53.632;10.016;2023-03-23T05:05:01;16.98;;;11.75;;
29712;SDS011;16623;53.632;10.016;2023-03-23T05:07:26;13.98;;;11.40;;
29712;SDS011;16623;53.632;10.016;2023-03-23T05:09:52;16.13;;;11.25;;
29712;SDS011;16623;53.632;10.016;2023-03-23T05:12:17;12.60;;;7.85;;
29712;SDS011;16623;53.632;10.016;2023-03-23T05:14:43;17.40;;;10.80;;
29712;SDS011;16623;53.632;10.016;2023-03-23T05:17:08;11.75;;;9.80;;
29712;SDS011;16623;53.632;10.016;2023-03-23T05:19:35;15.35;;;10.93;;
29712;SDS011;16623;53.632;10.016;2023-03-23T05:22:01;12.23;;;10.75;;
29712;SDS011;16623;53.632;10.016;2023-03-23T05:24:29;15.52;;;10.63;;
29712;SDS011;16623;53.632;10.016;2023-03-23T05:27:00;18.40;;;11.50;;
29712;SDS011;16623;53.632;10.016;2023-03-23T05:29:28;19.38;;;11.25;;
29712;SDS011;16623;53.632;10.016;2023-03-23T05:31:55;18.17;;;10.60;;
29712;SDS011;16623;53.632;10.016;2023-03-23T05:34:24;12.90;;;9.98;;
29712;SDS011;16623;53.632;10.016;2023-03-23T05:36:53;14.68;;;10.38;;
29712;SDS011;16623;53.632;10.016;2023-03-23T05:39:20;13.77;;;9.55;;
29712;SDS011;16623;53.632;10.016;2023-03-23T05:41:46;13.85;;;10.60;;
29712;SDS011;16623;53.632;10.016;2023-03-23T05:44:11;14.20;;;9.27;;
29712;SDS011;16623;53.632;10.016;2023-03-23T05:46:38;14.98;;;9.80;;
29712;SDS011;16623;53.632;10.016;2023-03-23T05:49:04;17.73;;;10.15;;
29712;SDS011;16623;53.632;10.016;2023-03-23T05:51:29;15.80;;;10.00;;
29712;SDS011;16623;53.632;10.016;2023-03-23T05:53:55;14.95;;;9.30;;
29712;SDS011;16623;53.632;10.016;2023-03-23T05:56:21;14.30;;;9.88;;
29712;SDS011;16623;53.632;10.016;2023-03-23T05:58:46;12.82;;;9.45;;
29712;SDS011;16623;53.632;10.016;2023-03-23T06:01:12;14.70;;;8.70;;
29712;SDS011;16623;53.632;10.016;2023-03-23T06:03:38;10.95;;;8.75;;
29712;SDS011;16623;53.632;10.016;2023-03-23T06:06:05;13.63;;;8.48;;
29712;SDS011;16623;53.632;10.016;2023-03-23T06:08:30;13.52;;;8.32;;
29712;SDS011;16623;53.632;10.016;2023-03-23T06:10:56;11.70;;;8.05;;
29712;SDS011;16623;53.632;10.016;2023-03-23T06:13:22;12.52;;;7.50;;
29712;SDS011;16623;53.632;10.016;2023-03-23T06:15:48;18.77;;;8.70;;
29712;SDS011;16623;53.632;10.016;2023-03-23T06:18:14;13.10;;;8.10;;
29712;SDS011;16623;53.632;10.016;2023-03-23T06:20:41;14.32;;;7.63;;
29712;SDS011;16623;53.632;10.016;2023-03-23T06:23:08;8.75;;;6.75;;
29712;SDS011;16623;53.632;10.016;2023-03-23T06:25:34;13.55;;;7.88;;
29712;SDS011;16623;53.632;10.016;2023-03-23T06:27:59;11.68;;;7.03;;
29712;SDS011;16623;53.632;10.016;2023-03-23T06:30:25;8.80;;;7.43;;
29712;SDS011;16623;53.632;10.016;2023-03-23T06:32:51;11.90;;;7.45;;
29712;SDS011;16623;53.632;10.016;2023-03-23T06:35:18;11.05;;;6.70;;
29712;SDS011;16623;53.632;10.016;2023-03-23T06:37:44;11.52;;;7.30;;
29712;SDS011;16623;53.632;10.016;2023-03-23T06:40:10;13.82;;;7.35;;
29712;SDS011;16623;53.632;10.016;2023-03-23T06:42:36;10.80;;;6.53;;
29712;SDS011;16623;53.632;10.016;2023-03-23T06:45:03;11.60;;;6.68;;
29712;SDS011;16623;53.632;10.016;2023-03-23T06:47:31;14.93;;;6.32;;
29712;SDS011;16623;53.632;10.016;2023-03-23T06:49:57;9.40;;;5.53;;
29712;SDS011;16623;53.632;10.016;2023-03-23T06:52:23;6.93;;;5.72;;
29712;SDS011;16623;53.632;10.016;2023-03-23T06:54:50;8.30;;;5.30;;
29712;SDS011;16623;53.632;10.016;2023-03-23T06:57:16;10.73;;;5.40;;
29712;SDS011;16623;53.632;10.016;2023-03-23T06:59:42;10.85;;;5.82;;
29712;SDS011;16623;53.632;10.016;2023-03-23T07:02:08;10.43;;;5.50;;
29712;SDS011;16623;53.632;10.016;2023-03-23T07:04:39;7.50;;;5.25;;
29712;SDS011;16623;53.632;10.016;2023-03-23T07:07:07;10.27;;;5.72;;
29712;SDS011;16623;53.632;10.016;2023-03-23T07:09:33;7.13;;;4.47;;
29712;SDS011;16623;53.632;10.016;2023-03-23T07:11:59;10.07;;;5.07;;
29712;SDS011;16623;53.632;10.016;2023-03-23T07:14:24;7.70;;;4.80;;
29712;SDS011;16623;53.632;10.016;2023-03-23T07:16:49;7.07;;;5.10;;
29712;SDS011;16623;53.632;10.016;2023-03-23T07:19:15;7.70;;;4.93;;
29712;SDS011;16623;53.632;10.016;2023-03-23T07:21:41;7.93;;;4.45;;
29712;SDS011;16623;53.632;10.016;2023-03-23T07:24:10;11.60;;;5.00;;
29712;SDS011;16623;53.632;10.016;2023-03-23T07:26:38;6.57;;;4.65;;
29712;SDS011;16623;53.632;10.016;2023-03-23T07:29:09;5.82;;;4.20;;
29712;SDS011;16623;53.632;10.016;2023-03-23T07:31:35;7.82;;;4.97;;
29712;SDS011;16623;53.632;10.016;2023-03-23T07:34:00;7.90;;;4.57;;
29712;SDS011;16623;53.632;10.016;2023-03-23T07:36:27;5.25;;;4.35;;
29712;SDS011;16623;53.632;10.016;2023-03-23T07:38:53;6.88;;;4.20;;
29712;SDS011;16623;53.632;10.016;2023-03-23T07:41:19;8.63;;;3.78;;
29712;SDS011;16623;53.632;10.016;2023-03-23T07:43:45;8.85;;;4.20;;
29712;SDS011;16623;53.632;10.016;2023-03-23T07:46:11;12.05;;;4.60;;
29712;SDS011;16623;53.632;10.016;2023-03-23T07:48:38;6.72;;;4.22;;
29712;SDS011;16623;53.632;10.016;2023-03-23T07:51:04;12.52;;;4.53;;
29712;SDS011;16623;53.632;10.016;2023-03-23T07:53:30;9.20;;;4.50;;
29712;SDS011;16623;53.632;10.016;2023-03-23T07:55:57;14.80;;;4.95;;
29712;SDS011;16623;53.632;10.016;2023-03-23T07:58:22;9.95;;;4.55;;
29712;SDS011;16623;53.632;10.016;2023-03-23T08:00:48;13.77;;;5.20;;
29712;SDS011;16623;53.632;10.016;2023-03-23T08:03:14;9.57;;;5.70;;
29712;SDS011;16623;53.632;10.016;2023-03-23T08:05:42;9.07;;;5.68;;
29712;SDS011;16623;53.632;10.016;2023-03-23T08:08:08;10.00;;;5.72;;
29712;SDS011;16623;53.632;10.016;2023-03-23T08:10:34;11.95;;;5.50;;
29712;SDS011;16623;53.632;10.016;2023-03-23T08:13:01;6.30;;;3.42;;
29712;SDS011;16623;53.632;10.016;2023-03-23T08:15:27;2.55;;;1.35;;
29712;SDS011;16623;53.632;10.016;2023-03-23T08:17:53;3.55;;;1.83;;
29712;SDS011;16623;53.632;10.016;2023-03-23T08:20:19;2.97;;;1.70;;
29712;SDS011;16623;53.632;10.016;2023-03-23T08:22:48;5.95;;;2.10;;
29712;SDS011;16623;53.632;10.016;2023-03-23T08:25:17;6.47;;;1.70;;
29712;SDS011;16623;53.632;10.016;2023-03-23T08:27:43;3.65;;;1.30;;
29712;SDS011;16623;53.632;10.016;2023-03-23T08:30:11;3.60;;;1.20;;
29712;SDS011;16623;53.632;10.016;2023-03-23T08:32:38;2.95;;;1.55;;
29712;SDS011;16623;53.632;10.016;2023-03-23T08:35:04;3.58;;;1.67;;
29712;SDS011;16623;53.632;10.016;2023-03-23T08:37:30;5.93;;;3.05;;
29712;SDS011;16623;53.632;10.016;2023-03-23T08:39:56;4.78;;;1.83;;
29712;SDS011;16623;53.632;10.016;2023-03-23T08:42:23;5.07;;;2.15;;
29712;SDS011;16623;53.632;10.016;2023-03-23T08:44:51;5.72;;;1.88;;
29712;SDS011;16623;53.632;10.016;2023-03-23T08:47:17;8.65;;;2.00;;
29712;SDS011;16623;53.632;10.016;2023-03-23T08:49:43;7.78;;;2.05;;
29712;SDS011;16623;53.632;10.016;2023-03-23T08:52:10;3.65;;;2.58;;
29712;SDS011;16623;53.632;10.016;2023-03-23T08:54:35;10.30;;;2.05;;
29712;SDS011;16623;53.632;10.016;2023-03-23T08:57:02;4.22;;;2.40;;
29712;SDS011;16623;53.632;10.016;2023-03-23T08:59:28;4.68;;;2.47;;
29712;SDS011;16623;53.632;10.016;2023-03-23T09:01:53;4.00;;;2.15;;
29712;SDS011;16623;53.632;10.016;2023-03-23T09:04:19;8.07;;;2.60;;
29712;SDS011;16623;53.632;10.016;2023-03-23T09:06:45;6.45;;;3.25;;
29712;SDS011;16623;53.632;10.016;2023-03-23T09:09:12;11.50;;;2.65;;
29712;SDS011;16623;53.632;10.016;2023-03-23T09:11:38;5.78;;;2.72;;
29712;SDS011;16623;53.632;10.016;2023-03-23T09:14:05;3.80;;;2.40;;
29712;SDS011;16623;53.632;10.016;2023-03-23T09:16:32;7.22;;;2.78;;
29712;SDS011;16623;53.632;10.016;2023-03-23T09:18:58;11.10;;;3.15;;
29712;SDS011;16623;53.632;10.016;2023-03-23T09:21:25;7.15;;;2.75;;
29712;SDS011;16623;53.632;10.016;2023-03-23T09:23:52;7.18;;;2.97;;
29712;SDS011;16623;53.632;10.016;2023-03-23T09:26:18;12.02;;;2.65;;
29712;SDS011;16623;53.632;10.016;2023-03-23T09:28:44;10.45;;;2.80;;
29712;SDS011;16623;53.632;10.016;2023-03-23T09:31:10;9.38;;;2.78;;
29712;SDS011;16623;53.632;10.016;2023-03-23T09:33:37;8.90;;;2.60;;
29712;SDS011;16623;53.632;10.016;2023-03-23T09:36:03;9.27;;;2.60;;
29712;SDS011;16623;53.632;10.016;2023-03-23T09:38:30;12.90;;;2.58;;
29712;SDS011;16623;53.632;10.016;2023-03-23T09:47:05;11.75;;;3.20;;
29712;SDS011;16623;53.632;10.016;2023-03-23T09:49:53;9.85;;;2.08;;
29712;SDS011;16623;53.632;10.016;2023-03-23T09:52:22;7.05;;;2.60;;
29712;SDS011;16623;53.632;10.016;2023-03-23T09:55:14;17.48;;;2.53;;
29712;SDS011;16623;53.632;10.016;2023-03-23T10:00:20;14.07;;;2.92;;
29712;SDS011;16623;53.632;10.016;2023-03-23T10:03:06;16.17;;;2.85;;
29712;SDS011;16623;53.632;10.016;2023-03-23T10:05:47;11.50;;;3.42;;
29712;SDS011;16623;53.632;10.016;2023-03-23T10:08:18;12.48;;;2.78;;
29712;SDS011;16623;53.632;10.016;2023-03-23T10:13:47;7.43;;;1.90;;
29712;SDS011;16623;53.632;10.016;2023-03-23T10:16:25;10.50;;;2.38;;
29712;SDS011;16623;53.632;10.016;2023-03-23T10:18:58;17.58;;;2.90;;
29712;SDS011;16623;53.632;10.016;2023-03-23T10:21:41;10.25;;;2.42;;
29712;SDS011;16623;53.632;10.016;2023-03-23T10:24:13;11.38;;;2.17;;
29712;SDS011;16623;53.632;10.016;2023-03-23T10:32:00;13.73;;;3.42;;
29712;SDS011;16623;53.632;10.016;2023-03-23T10:34:35;10.00;;;2.33;;
29712;SDS011;16623;53.632;10.016;2023-03-23T10:37:05;11.45;;;3.08;;
29712;SDS011;16623;53.632;10.016;2023-03-23T10:39:43;12.77;;;3.38;;
29712;SDS011;16623;53.632;10.016;2023-03-23T10:42:25;16.27;;;2.90;;
29712;SDS011;16623;53.632;10.016;2023-03-23T10:45:00;15.20;;;3.08;;
29712;SDS011;16623;53.632;10.016;2023-03-23T10:47:55;17.13;;;4.10;;
29712;SDS011;16623;53.632;10.016;2023-03-23T10:50:28;13.15;;;2.42;;
29712;SDS011;16623;53.632;10.016;2023-03-23T10:52:57;12.50;;;3.20;;
29712;SDS011;16623;53.632;10.016;2023-03-23T10:55:34;12.48;;;2.88;;
29712;SDS011;16623;53.632;10.016;2023-03-23T10:58:09;13.02;;;2.45;;
29712;SDS011;16623;53.632;10.016;2023-03-23T11:00:41;13.40;;;3.00;;
29712;SDS011;16623;53.632;10.016;2023-03-23T11:05:53;13.57;;;3.70;;
29712;SDS011;16623;53.632;10.016;2023-03-23T11:08:23;17.38;;;2.92;;
29712;SDS011;16623;53.632;10.016;2023-03-23T11:11:06;13.00;;;2.22;;
29712;SDS011;16623;53.632;10.016;2023-03-23T11:13:44;12.73;;;2.75;;
29712;SDS011;16623;53.632;10.016;2023-03-23T11:16:21;9.18;;;2.47;;
29712;SDS011;16623;53.632;10.016;2023-03-23T11:18:48;16.23;;;3.15;;
29712;SDS011;16623;53.632;10.016;2023-03-23T11:21:14;14.88;;;3.33;;
29712;SDS011;16623;53.632;10.016;2023-03-23T11:23:41;29.13;;;5.28;;
29712;SDS011;16623;53.632;10.016;2023-03-23T11:26:15;12.88;;;2.42;;
29712;SDS011;16623;53.632;10.016;2023-03-23T11:31:26;17.67;;;3.00;;
29712;SDS011;16623;53.632;10.016;2023-03-23T11:34:01;15.52;;;2.67;;
29712;SDS011;16623;53.632;10.016;2023-03-23T11:36:33;16.63;;;2.63;;
29712;SDS011;16623;53.632;10.016;2023-03-23T11:39:18;16.88;;;4.03;;
29712;SDS011;16623;53.632;10.016;2023-03-23T11:41:52;23.40;;;4.97;;
29712;SDS011;16623;53.632;10.016;2023-03-23T11:44:19;19.40;;;3.08;;
29712;SDS011;16623;53.632;10.016;2023-03-23T11:46:50;18.05;;;2.92;;
29712;SDS011;16623;53.632;10.016;2023-03-23T11:49:30;17.73;;;3.17;;
29712;SDS011;16623;53.632;10.016;2023-03-23T11:52:14;14.45;;;3.78;;
29712;SDS011;16623;53.632;10.016;2023-03-23T11:54:52;16.75;;;3.33;;
29712;SDS011;16623;53.632;10.016;2023-03-23T11:57:39;10.07;;;2.53;;
29712;SDS011;16623;53.632;10.016;2023-03-23T12:00:23;13.32;;;3.30;;
29712;SDS011;16623;53.632;10.016;2023-03-23T12:11:26;11.90;;;3.80;;
29712;SDS011;16623;53.632;10.016;2023-03-23T12:17:16;13.68;;;3.15;;
29712;SDS011;16623;53.632;10.016;2023-03-23T12:20:11;16.33;;;3.10;;
29712;SDS011;16623;53.632;10.016;2023-03-23T12:22:52;16.95;;;3.70;;
29712;SDS011;16623;53.632;10.016;2023-03-23T12:28:06;10.73;;;3.22;;
29712;SDS011;16623;53.632;10.016;2023-03-23T12:39:29;27.15;;;3.85;;
29712;SDS011;16623;53.632;10.016;2023-03-23T12:44:48;16.67;;;3.50;;
29712;SDS011;16623;53.632;10.016;2023-03-23T12:47:31;6.03;;;2.50;;
29712;SDS011;16623;53.632;10.016;2023-03-23T12:50:09;12.00;;;4.35;;
29712;SDS011;16623;53.632;10.016;2023-03-23T12:52:45;10.48;;;3.38;;
29712;SDS011;16623;53.632;10.016;2023-03-23T12:55:27;9.97;;;3.07;;
29712;SDS011;16623;53.632;10.016;2023-03-23T12:58:11;12.55;;;3.10;;
29712;SDS011;16623;53.632;10.016;2023-03-23T13:03:30;16.67;;;3.70;;
29712;SDS011;16623;53.632;10.016;2023-03-23T13:06:24;11.35;;;3.22;;
29712;SDS011;16623;53.632;10.016;2023-03-23T13:11:38;15.52;;;4.63;;
29712;SDS011;16623;53.632;10.016;2023-03-23T13:20:25;19.90;;;3.53;;
29712;SDS011;16623;53.632;10.016;2023-03-23T13:23:20;10.93;;;3.25;;
29712;SDS011;16623;53.632;10.016;2023-03-23T13:25:49;8.13;;;3.05;;
29712;SDS011;16623;53.632;10.016;2023-03-23T13:28:28;12.35;;;3.03;;
29712;SDS011;16623;53.632;10.016;2023-03-23T13:30:57;13.05;;;3.70;;
29712;SDS011;16623;53.632;10.016;2023-03-23T13:33:23;10.88;;;2.75;;
29712;SDS011;16623;53.632;10.016;2023-03-23T13:35:50;14.23;;;3.30;;
29712;SDS011;16623;53.632;10.016;2023-03-23T13:38:21;13.85;;;3.90;;
29712;SDS011;16623;53.632;10.016;2023-03-23T13:40:50;9.23;;;2.70;;
29712;SDS011;16623;53.632;10.016;2023-03-23T13:43:25;16.80;;;3.17;;
29712;SDS011;16623;53.632;10.016;2023-03-23T13:45:53;8.77;;;2.47;;
29712;SDS011;16623;53.632;10.016;2023-03-23T13:48:43;9.20;;;3.53;;
29712;SDS011;16623;53.632;10.016;2023-03-23T13:54:12;9.60;;;2.83;;
29712;SDS011;16623;53.632;10.016;2023-03-23T13:56:55;7.47;;;2.35;;
29712;SDS011;16623;53.632;10.016;2023-03-23T14:01:52;11.45;;;2.65;;
29712;SDS011;16623;53.632;10.016;2023-03-23T14:04:20;7.63;;;1.75;;
29712;SDS011;16623;53.632;10.016;2023-03-23T14:06:48;5.03;;;1.50;;
29712;SDS011;16623;53.632;10.016;2023-03-23T14:09:16;7.97;;;1.90;;
29712;SDS011;16623;53.632;10.016;2023-03-23T14:11:49;6.00;;;1.13;;
29712;SDS011;16623;53.632;10.016;2023-03-23T14:14:23;5.95;;;1.30;;
29712;SDS011;16623;53.632;10.016;2023-03-23T14:17:11;7.07;;;1.67;;
29712;SDS011;16623;53.632;10.016;2023-03-23T14:19:48;4.35;;;1.50;;
29712;SDS011;16623;53.632;10.016;2023-03-23T14:22:18;5.20;;;1.60;;
29712;SDS011;16623;53.632;10.016;2023-03-23T14:24:47;5.47;;;1.98;;
29712;SDS011;16623;53.632;10.016;2023-03-23T14:27:18;8.00;;;2.72;;
29712;SDS011;16623;53.632;10.016;2023-03-23T14:29:45;10.30;;;2.70;;
29712;SDS011;16623;53.632;10.016;2023-03-23T14:32:22;6.38;;;2.33;;
29712;SDS011;16623;53.632;10.016;2023-03-23T14:34:51;4.53;;;2.22;;
29712;SDS011;16623;53.632;10.016;2023-03-23T14:37:18;13.13;;;4.03;;
29712;SDS011;16623;53.632;10.016;2023-03-23T14:39:47;5.63;;;2.08;;
29712;SDS011;16623;53.632;10.016;2023-03-23T14:42:19;7.75;;;2.55;;
29712;SDS011;16623;53.632;10.016;2023-03-23T14:44:52;8.20;;;2.13;;
29712;SDS011;16623;53.632;10.016;2023-03-23T14:47:32;7.35;;;3.78;;
29712;SDS011;16623;53.632;10.016;2023-03-23T14:50:02;7.50;;;1.75;;
29712;SDS011;16623;53.632;10.016;2023-03-23T14:52:34;8.73;;;1.95;;
29712;SDS011;16623;53.632;10.016;2023-03-23T14:55:10;6.50;;;1.92;;
29712;SDS011;16623;53.632;10.016;2023-03-23T14:57:43;6.25;;;1.95;;
29712;SDS011;16623;53.632;10.016;2023-03-23T15:00:14;6.43;;;2.10;;
29712;SDS011;16623;53.632;10.016;2023-03-23T15:02:40;8.88;;;3.45;;
29712;SDS011;16623;53.632;10.016;2023-03-23T15:05:13;8.30;;;2.33;;
29712;SDS011;16623;53.632;10.016;2023-03-23T15:07:43;13.30;;;1.88;;
29712;SDS011;16623;53.632;10.016;2023-03-23T15:10:14;8.07;;;3.50;;
29712;SDS011;16623;53.632;10.016;2023-03-23T15:12:43;5.97;;;1.92;;
29712;SDS011;16623;53.632;10.016;2023-03-23T15:15:16;9.73;;;2.35;;
29712;SDS011;16623;53.632;10.016;2023-03-23T15:17:51;4.45;;;1.75;;
29712;SDS011;16623;53.632;10.016;2023-03-23T15:20:30;11.43;;;2.30;;
29712;SDS011;16623;53.632;10.016;2023-03-23T15:23:13;12.00;;;2.60;;
29712;SDS011;16623;53.632;10.016;2023-03-23T15:25:47;7.65;;;1.90;;
29712;SDS011;16623;53.632;10.016;2023-03-23T15:28:19;6.13;;;3.03;;
29712;SDS011;16623;53.632;10.016;2023-03-23T15:30:54;10.45;;;2.63;;
29712;SDS011;16623;53.632;10.016;2023-03-23T15:33:25;4.97;;;1.92;;
29712;SDS011;16623;53.632;10.016;2023-03-23T15:35:54;7.90;;;2.20;;
29712;SDS011;16623;53.632;10.016;2023-03-23T15:38:26;5.03;;;2.08;;
29712;SDS011;16623;53.632;10.016;2023-03-23T15:40:57;5.90;;;2.15;;
29712;SDS011;16623;53.632;10.016;2023-03-23T15:43:25;12.65;;;2.72;;
29712;SDS011;16623;53.632;10.016;2023-03-23T15:45:58;9.52;;;2.30;;
29712;SDS011;16623;53.632;10.016;2023-03-23T15:48:34;6.13;;;2.72;;
29712;SDS011;16623;53.632;10.016;2023-03-23T15:51:12;8.90;;;2.53;;
29712;SDS011;16623;53.632;10.016;2023-03-23T15:53:38;8.98;;;2.75;;
29712;SDS011;16623;53.632;10.016;2023-03-23T15:56:05;11.13;;;6.18;;